Time;durP1;ratioP1;P1;durP2;ratioP2;P2;SDS_P1;SDS_P2;PMS_P1;PMS_P2;Temp;Humidity;BMP_temperature;BMP_pressure;BME280_temperature;BME280_humidity;BME280_pressure;Samples;Min_cycle;Max_cycle;Signal;HPM_P1;HPM_P2
2023/02/23 00:00:26;;;;;;;4.30;2.92;;;;;;;;;;4954279;28;20027;-45
2023/02/23 00:02:54;;;;;;;4.03;2.40;;;;;;;;;;4957921;28;20023;-45
2023/02/23 00:05:20;;;;;;;4.32;3.08;;;;;;;;;;4954614;28;20031;-46
2023/02/23 00:07:46;;;;;;;6.63;2.92;;;;;;;;;;4954849;28;20031;-44
2023/02/23 00:10:13;;;;;;;4.47;2.90;;;;;;;;;;4952170;28;20101;-46
2023/02/23 00:12:40;;;;;;;5.28;3.13;;;;;;;;;;4961567;28;20096;-45
2023/02/23 00:15:06;;;;;;;5.28;2.88;;;;;;;;;;4969039;28;20015;-45
2023/02/23 00:17:35;;;;;;;5.00;2.75;;;;;;;;;;4972684;28;20519;-45
2023/02/23 00:20:06;;;;;;;5.55;3.33;;;;;;;;;;4971271;28;20162;-46
2023/02/23 00:22:32;;;;;;;4.50;2.95;;;;;;;;;;4973100;28;20104;-47
2023/02/23 00:24:58;;;;;;;5.22;3.42;;;;;;;;;;4972001;28;20031;-46
2023/02/23 00:27:24;;;;;;;10.60;3.92;;;;;;;;;;4972061;28;20031;-48
2023/02/23 00:29:50;;;;;;;4.75;2.85;;;;;;;;;;4971388;28;20023;-46
2023/02/23 00:32:20;;;;;;;4.05;2.50;;;;;;;;;;4970613;28;20027;-47
2023/02/23 00:34:49;;;;;;;4.85;2.58;;;;;;;;;;4972535;28;20039;-45
2023/02/23 00:37:16;;;;;;;3.22;2.65;;;;;;;;;;4970529;28;20418;-47
2023/02/23 00:39:42;;;;;;;4.05;2.65;;;;;;;;;;4972316;28;20023;-46
2023/02/23 00:42:09;;;;;;;4.78;2.70;;;;;;;;;;4972585;28;20027;-45
2023/02/23 00:44:39;;;;;;;5.07;3.03;;;;;;;;;;4973402;28;20026;-47
2023/02/23 00:47:05;;;;;;;5.30;3.10;;;;;;;;;;4972544;28;20044;-45
2023/02/23 00:49:31;;;;;;;3.70;2.45;;;;;;;;;;4971250;28;20082;-45
2023/02/23 00:51:57;;;;;;;4.10;2.92;;;;;;;;;;4972027;28;20030;-46
2023/02/23 00:54:23;;;;;;;3.65;2.40;;;;;;;;;;4972524;28;20392;-45
2023/02/23 00:56:49;;;;;;;5.20;2.85;;;;;;;;;;4972384;28;20081;-45
2023/02/23 00:59:15;;;;;;;7.50;3.20;;;;;;;;;;4972726;28;20031;-56
2023/02/23 01:01:42;;;;;;;3.97;3.10;;;;;;;;;;4973090;28;20057;-46
2023/02/23 01:04:08;;;;;;;5.53;3.10;;;;;;;;;;4971308;28;20062;-46
2023/02/23 01:06:36;;;;;;;4.40;2.92;;;;;;;;;;4973269;28;20023;-46
2023/02/23 01:09:06;;;;;;;4.53;2.63;;;;;;;;;;4971908;28;20149;-45
2023/02/23 01:11:33;;;;;;;4.45;2.75;;;;;;;;;;4971195;28;20034;-46
2023/02/23 01:13:59;;;;;;;5.03;3.00;;;;;;;;;;4955059;28;20043;-46
2023/02/23 01:16:27;;;;;;;5.20;3.00;;;;;;;;;;4953281;28;20035;-48
2023/02/23 01:18:54;;;;;;;4.07;2.65;;;;;;;;;;4951957;28;20035;-46
2023/02/23 01:21:22;;;;;;;5.53;3.35;;;;;;;;;;4953813;28;20049;-45
2023/02/23 01:23:48;;;;;;;4.35;2.58;;;;;;;;;;4953279;28;20063;-45
2023/02/23 01:26:16;;;;;;;4.63;3.15;;;;;;;;;;4949958;28;20031;-45
2023/02/23 01:28:42;;;;;;;5.13;3.05;;;;;;;;;;4953929;28;20020;-47
2023/02/23 01:31:08;;;;;;;5.22;3.20;;;;;;;;;;4945314;28;20023;-46
2023/02/23 01:33:34;;;;;;;5.43;3.45;;;;;;;;;;4951387;28;20019;-45
2023/02/23 01:36:00;;;;;;;4.07;2.97;;;;;;;;;;4952509;28;20504;-44
2023/02/23 01:38:27;;;;;;;3.85;2.88;;;;;;;;;;4960985;28;20058;-47
2023/02/23 01:40:52;;;;;;;3.63;2.65;;;;;;;;;;4952424;28;20036;-46
2023/02/23 01:43:24;;;;;;;4.53;2.60;;;;;;;;;;4954931;28;20047;-46
2023/02/23 01:45:50;;;;;;;4.80;3.58;;;;;;;;;;4957735;28;20082;-46
2023/02/23 01:48:18;;;;;;;4.80;3.45;;;;;;;;;;4945552;28;20039;-47
2023/02/23 01:50:48;;;;;;;3.78;2.92;;;;;;;;;;4951344;28;20031;-45
2023/02/23 01:53:14;;;;;;;6.00;3.10;;;;;;;;;;4954310;28;21670;-45
2023/02/23 01:55:41;;;;;;;5.82;3.28;;;;;;;;;;4953581;28;20358;-45
2023/02/23 01:58:14;;;;;;;4.13;3.10;;;;;;;;;;4951809;28;20090;-46
2023/02/23 02:00:40;;;;;;;5.53;3.38;;;;;;;;;;4948630;28;20425;-47
2023/02/23 02:03:10;;;;;;;5.47;2.95;;;;;;;;;;4953886;28;20082;-46
2023/02/23 02:05:37;;;;;;;4.82;3.38;;;;;;;;;;4954657;28;20026;-45
2023/02/23 02:08:05;;;;;;;6.18;2.97;;;;;;;;;;4952868;28;20031;-45
2023/02/23 02:10:45;;;;;;;6.32;3.22;;;;;;;;;;4950623;28;20027;-45
2023/02/23 02:13:13;;;;;;;5.13;3.20;;;;;;;;;;4944017;28;20207;-45
2023/02/23 02:16:11;;;;;;;5.30;3.38;;;;;;;;;;4953107;28;20115;-45
2023/02/23 02:18:45;;;;;;;4.32;2.92;;;;;;;;;;4902120;29;20031;-46
2023/02/23 02:21:18;;;;;;;3.08;2.42;;;;;;;;;;4952750;28;20101;-45
2023/02/23 02:23:50;;;;;;;4.30;3.28;;;;;;;;;;4949371;28;20027;-46
2023/02/23 02:26:26;;;;;;;4.82;3.45;;;;;;;;;;4950049;28;20075;-45
2023/02/23 02:29:04;;;;;;;5.07;3.00;;;;;;;;;;4952721;28;20404;-47
2023/02/23 02:31:36;;;;;;;5.82;3.38;;;;;;;;;;4956628;28;20027;-48
2023/02/23 02:34:02;;;;;;;3.97;2.95;;;;;;;;;;4951892;28;20035;-46
2023/02/23 02:36:46;;;;;;;5.35;3.15;;;;;;;;;;4950423;28;20426;-48
2023/02/23 02:39:33;;;;;;;5.30;3.85;;;;;;;;;;4960300;28;20050;-46
2023/02/23 02:42:22;;;;;;;4.95;3.22;;;;;;;;;;4953055;28;20027;-47
2023/02/23 02:44:51;;;;;;;4.72;3.25;;;;;;;;;;4928889;28;20512;-47
2023/02/23 02:47:47;;;;;;;4.25;3.30;;;;;;;;;;4952816;28;20484;-45
2023/02/23 02:50:17;;;;;;;4.03;3.05;;;;;;;;;;4934590;28;20049;-45
2023/02/23 02:52:53;;;;;;;3.97;3.17;;;;;;;;;;4953289;28;20079;-46
2023/02/23 02:55:24;;;;;;;5.70;3.05;;;;;;;;;;4943913;28;20122;-46
2023/02/23 02:57:51;;;;;;;4.45;3.13;;;;;;;;;;4950896;28;20032;-47
2023/02/23 04:18:24;;;;;;;5.90;3.28;;;;;;;;;;4974252;28;20065;-46
2023/02/23 04:20:50;;;;;;;5.03;3.47;;;;;;;;;;4972275;28;20025;-46
2023/02/23 04:23:16;;;;;;;5.22;3.42;;;;;;;;;;4974408;28;20031;-46
2023/02/23 04:25:42;;;;;;;5.03;3.03;;;;;;;;;;4973664;28;20088;-46
2023/02/23 04:28:08;;;;;;;6.30;3.90;;;;;;;;;;4973295;28;20023;-48
2023/02/23 04:30:34;;;;;;;4.38;2.90;;;;;;;;;;4972420;28;20038;-45
2023/02/23 04:33:00;;;;;;;4.85;3.20;;;;;;;;;;4969471;28;20483;-46
2023/02/23 04:35:28;;;;;;;5.45;3.10;;;;;;;;;;4973367;28;20503;-46
2023/02/23 04:37:55;;;;;;;5.05;3.80;;;;;;;;;;4972967;28;20559;-46
2023/02/23 04:40:21;;;;;;;4.50;3.10;;;;;;;;;;4972723;28;20109;-46
2023/02/23 04:42:47;;;;;;;4.75;3.17;;;;;;;;;;4973654;28;20026;-45
2023/02/23 04:45:13;;;;;;;4.13;3.00;;;;;;;;;;4972744;28;20037;-45
2023/02/23 04:47:39;;;;;;;5.18;3.17;;;;;;;;;;4973948;28;20027;-46
2023/02/23 04:50:05;;;;;;;4.13;3.08;;;;;;;;;;4966779;28;20042;-46
2023/02/23 04:52:31;;;;;;;4.07;3.45;;;;;;;;;;4970512;28;20049;-48
2023/02/23 04:54:57;;;;;;;4.80;3.45;;;;;;;;;;4967971;28;20118;-48
2023/02/23 04:57:23;;;;;;;4.78;3.20;;;;;;;;;;4969230;28;20154;-48
2023/02/23 04:59:49;;;;;;;5.63;3.08;;;;;;;;;;4966541;28;20464;-48
2023/02/23 05:02:15;;;;;;;4.93;3.20;;;;;;;;;;4970593;28;20030;-46
2023/02/23 05:04:41;;;;;;;4.95;2.97;;;;;;;;;;4969362;28;20487;-45
2023/02/23 05:07:07;;;;;;;5.45;3.40;;;;;;;;;;4972246;28;20276;-47
2023/02/23 05:09:33;;;;;;;5.05;3.80;;;;;;;;;;4972470;28;20034;-46
2023/02/23 05:12:00;;;;;;;4.47;3.30;;;;;;;;;;4970839;28;20110;-47
2023/02/23 05:14:26;;;;;;;5.93;3.33;;;;;;;;;;4971597;28;20034;-51
2023/02/23 05:16:52;;;;;;;8.60;3.33;;;;;;;;;;4972187;28;20031;-48
2023/02/23 05:19:18;;;;;;;4.40;3.13;;;;;;;;;;4971029;28;20469;-46
2023/02/23 05:21:44;;;;;;;5.22;3.40;;;;;;;;;;4972704;28;20117;-48
2023/02/23 05:24:10;;;;;;;4.88;3.08;;;;;;;;;;4971122;28;20031;-48
2023/02/23 05:26:36;;;;;;;5.22;3.80;;;;;;;;;;4972794;28;20033;-50
2023/02/23 05:29:03;;;;;;;3.55;2.92;;;;;;;;;;4970803;28;20045;-50
2023/02/23 05:31:29;;;;;;;6.15;3.83;;;;;;;;;;4972568;28;20030;-47
2023/02/23 05:33:55;;;;;;;5.05;3.50;;;;;;;;;;4972167;28;20395;-47
2023/02/23 05:36:21;;;;;;;4.47;3.50;;;;;;;;;;4972240;28;20023;-45
2023/02/23 05:38:48;;;;;;;5.63;4.00;;;;;;;;;;4971060;28;20027;-46
2023/02/23 05:41:18;;;;;;;4.70;3.15;;;;;;;;;;4971782;28;20023;-45
2023/02/23 05:43:44;;;;;;;4.03;3.08;;;;;;;;;;4972399;28;20030;-45
2023/02/23 05:46:11;;;;;;;4.85;3.25;;;;;;;;;;4971375;28;20491;-45
2023/02/23 05:48:37;;;;;;;5.90;3.35;;;;;;;;;;4972501;28;20030;-45
2023/02/23 05:51:07;;;;;;;5.88;3.30;;;;;;;;;;4969777;28;20395;-47
2023/02/23 05:53:33;;;;;;;4.60;3.17;;;;;;;;;;4971965;28;20039;-47
2023/02/23 05:56:01;;;;;;;5.25;3.22;;;;;;;;;;4971501;28;20077;-47
2023/02/23 05:58:27;;;;;;;5.60;4.05;;;;;;;;;;4972591;28;20038;-51
2023/02/23 06:00:53;;;;;;;5.05;3.75;;;;;;;;;;4969834;28;20065;-48
2023/02/23 06:03:20;;;;;;;3.95;3.05;;;;;;;;;;4972783;28;20029;-52
2023/02/23 06:05:50;;;;;;;5.65;3.33;;;;;;;;;;4970445;28;20034;-48
2023/02/23 06:08:16;;;;;;;5.30;3.30;;;;;;;;;;4972166;28;20507;-47
2023/02/23 06:10:42;;;;;;;3.70;2.83;;;;;;;;;;4966801;28;20035;-48
2023/02/23 06:13:09;;;;;;;5.88;4.00;;;;;;;;;;4966523;28;20051;-51
2023/02/23 06:15:36;;;;;;;4.22;2.78;;;;;;;;;;4971993;28;20030;-50
2023/02/23 06:18:02;;;;;;;7.10;3.63;;;;;;;;;;4972721;28;20034;-52
2023/02/23 06:20:28;;;;;;;4.68;2.88;;;;;;;;;;4972136;28;20121;-50
2023/02/23 06:22:54;;;;;;;3.70;2.88;;;;;;;;;;4970206;28;20058;-49
2023/02/23 06:25:20;;;;;;;3.80;2.90;;;;;;;;;;4976071;28;20031;-51
2023/02/23 06:27:46;;;;;;;5.68;3.67;;;;;;;;;;4972491;28;20033;-49
2023/02/23 06:30:12;;;;;;;4.68;3.08;;;;;;;;;;4970718;28;20039;-49
2023/02/23 06:32:38;;;;;;;5.65;3.47;;;;;;;;;;4972297;28;20037;-48
2023/02/23 06:35:05;;;;;;;4.93;3.60;;;;;;;;;;4969912;28;20027;-45
2023/02/23 06:37:31;;;;;;;5.88;3.47;;;;;;;;;;4974226;28;20085;-47
2023/02/23 06:39:57;;;;;;;6.28;3.55;;;;;;;;;;4974858;28;20034;-47
2023/02/23 06:42:24;;;;;;;6.30;3.47;;;;;;;;;;4973398;28;20124;-47
2023/02/23 06:44:50;;;;;;;4.88;3.58;;;;;;;;;;4972673;28;20384;-48
2023/02/23 06:47:16;;;;;;;5.18;3.13;;;;;;;;;;4972840;28;20023;-48
2023/02/23 06:49:42;;;;;;;7.07;3.28;;;;;;;;;;4974588;28;20475;-47
2023/02/23 06:52:09;;;;;;;4.55;3.03;;;;;;;;;;4971381;28;20035;-47
2023/02/23 06:54:37;;;;;;;6.20;3.53;;;;;;;;;;4974713;28;20019;-47
2023/02/23 06:57:03;;;;;;;7.75;3.67;;;;;;;;;;4973702;28;20403;-47
2023/02/23 06:59:29;;;;;;;5.18;2.88;;;;;;;;;;4974438;28;20023;-47
2023/02/23 07:01:55;;;;;;;5.18;3.15;;;;;;;;;;4974305;28;20034;-47
2023/02/23 07:04:21;;;;;;;8.90;3.10;;;;;;;;;;4974893;28;20049;-46
2023/02/23 07:06:47;;;;;;;6.65;3.00;;;;;;;;;;4974042;28;20027;-45
2023/02/23 07:09:17;;;;;;;7.22;3.85;;;;;;;;;;4974144;28;20077;-46
2023/02/23 07:11:46;;;;;;;6.45;3.58;;;;;;;;;;4975569;28;20399;-47
2023/02/23 07:14:12;;;;;;;8.10;3.50;;;;;;;;;;4951089;28;20051;-48
2023/02/23 07:16:38;;;;;;;7.00;3.65;;;;;;;;;;4957685;28;20028;-47
2023/02/23 07:19:05;;;;;;;7.43;3.78;;;;;;;;;;4961165;28;20985;-48
2023/02/23 07:21:32;;;;;;;7.00;2.97;;;;;;;;;;4961859;28;20038;-48
2023/02/23 07:23:59;;;;;;;7.78;3.45;;;;;;;;;;4961514;28;20081;-47
2023/02/23 07:26:25;;;;;;;8.63;3.22;;;;;;;;;;4962052;28;20038;-48
2023/02/23 07:28:51;;;;;;;6.45;3.03;;;;;;;;;;4955469;28;20035;-47
2023/02/23 07:31:17;;;;;;;7.55;3.13;;;;;;;;;;4946235;29;20111;-46
2023/02/23 07:33:45;;;;;;;13.15;3.58;;;;;;;;;;4956010;29;20404;-47
2023/02/23 07:36:11;;;;;;;5.82;3.58;;;;;;;;;;4942351;29;20094;-47
2023/02/23 07:38:37;;;;;;;5.28;3.10;;;;;;;;;;4964195;28;20098;-47
2023/02/23 07:41:04;;;;;;;9.15;3.30;;;;;;;;;;4952366;29;20028;-51
2023/02/23 07:43:30;;;;;;;3.75;2.58;;;;;;;;;;4956279;29;20091;-51
2023/02/23 07:45:59;;;;;;;6.20;3.40;;;;;;;;;;4954331;28;20118;-47
2023/02/23 07:48:25;;;;;;;4.88;3.13;;;;;;;;;;4955878;29;20380;-45
2023/02/23 07:50:51;;;;;;;4.25;2.58;;;;;;;;;;4954794;29;20099;-47
2023/02/23 07:53:17;;;;;;;7.80;3.78;;;;;;;;;;4942045;28;20032;-46
2023/02/23 07:55:44;;;;;;;5.60;3.10;;;;;;;;;;4960951;28;20034;-46
2023/02/23 07:58:12;;;;;;;5.40;3.10;;;;;;;;;;4956383;28;20019;-46
2023/02/23 08:00:39;;;;;;;7.72;3.20;;;;;;;;;;4941709;29;20024;-45
2023/02/23 08:03:05;;;;;;;5.40;2.70;;;;;;;;;;4954788;29;20028;-46
2023/02/23 08:05:31;;;;;;;4.15;3.33;;;;;;;;;;4945114;29;20050;-46
2023/02/23 08:07:57;;;;;;;6.43;2.67;;;;;;;;;;4954667;29;20024;-46
2023/02/23 08:10:23;;;;;;;5.60;3.38;;;;;;;;;;4949357;28;20512;-45
2023/02/23 08:12:49;;;;;;;5.32;3.17;;;;;;;;;;4958535;28;20491;-48
2023/02/23 08:15:15;;;;;;;5.05;2.75;;;;;;;;;;4973132;28;20063;-46
2023/02/23 08:17:42;;;;;;;4.15;2.85;;;;;;;;;;4973837;28;20388;-49
2023/02/23 08:20:09;;;;;;;5.40;3.30;;;;;;;;;;4972877;28;20017;-46
2023/02/23 08:22:35;;;;;;;4.10;2.80;;;;;;;;;;4973879;28;20085;-51
2023/02/23 08:25:02;;;;;;;5.55;3.10;;;;;;;;;;4973028;28;20034;-46
2023/02/23 08:27:29;;;;;;;6.13;3.20;;;;;;;;;;4973366;28;20023;-47
2023/02/23 08:29:56;;;;;;;6.50;2.92;;;;;;;;;;4972445;28;20027;-47
2023/02/23 08:32:22;;;;;;;4.90;3.10;;;;;;;;;;4973781;28;20038;-46
2023/02/23 08:34:48;;;;;;;3.60;2.70;;;;;;;;;;4972973;28;20088;-46
2023/02/23 08:37:14;;;;;;;5.63;2.88;;;;;;;;;;4974097;28;20031;-46
2023/02/23 08:39:40;;;;;;;4.32;2.90;;;;;;;;;;4972347;28;20019;-46
2023/02/23 08:42:06;;;;;;;5.80;3.83;;;;;;;;;;4973190;28;20022;-49
2023/02/23 08:44:32;;;;;;;4.93;2.80;;;;;;;;;;4973002;28;20120;-47
2023/02/23 08:47:00;;;;;;;5.22;3.00;;;;;;;;;;4972993;28;20070;-46
2023/02/23 08:49:26;;;;;;;8.75;3.15;;;;;;;;;;4972912;28;20023;-45
2023/02/23 08:51:52;;;;;;;6.32;3.00;;;;;;;;;;4972025;28;20031;-45
2023/02/23 08:54:19;;;;;;;6.57;3.08;;;;;;;;;;4972794;28;20054;-47
2023/02/23 08:56:45;;;;;;;4.78;2.72;;;;;;;;;;4972983;28;20027;-46
2023/02/23 08:59:11;;;;;;;4.72;2.85;;;;;;;;;;4971424;28;20102;-47
2023/02/23 09:01:37;;;;;;;5.40;3.22;;;;;;;;;;4973409;28;20456;-46
2023/02/23 09:04:04;;;;;;;4.47;2.78;;;;;;;;;;4971425;28;20034;-47
2023/02/23 09:06:31;;;;;;;3.92;2.80;;;;;;;;;;4973406;28;20031;-47
2023/02/23 09:08:57;;;;;;;6.82;3.20;;;;;;;;;;4971810;28;20042;-46
2023/02/23 09:11:23;;;;;;;5.07;2.70;;;;;;;;;;4977007;28;20118;-47
2023/02/23 09:13:50;;;;;;;5.43;2.58;;;;;;;;;;4972006;28;20059;-47
2023/02/23 09:16:16;;;;;;;4.60;2.47;;;;;;;;;;4972622;28;20110;-46
2023/02/23 09:18:42;;;;;;;3.72;2.60;;;;;;;;;;4973417;28;20066;-50
2023/02/23 09:21:17;;;;;;;5.40;2.63;;;;;;;;;;4972541;28;20222;-45
2023/02/23 09:23:43;;;;;;;3.63;2.33;;;;;;;;;;4972869;28;20380;-46
2023/02/23 09:26:10;;;;;;;4.38;2.85;;;;;;;;;;4972160;28;20031;-46
2023/02/23 09:28:37;;;;;;;4.30;2.50;;;;;;;;;;4974145;28;20027;-46
2023/02/23 09:31:10;;;;;;;3.95;2.50;;;;;;;;;;4972208;28;20026;-47
2023/02/23 09:33:36;;;;;;;4.15;2.40;;;;;;;;;;4972372;28;20488;-46
2023/02/23 09:36:07;;;;;;;5.55;2.83;;;;;;;;;;4971982;28;20042;-46
2023/02/23 09:38:33;;;;;;;4.60;2.80;;;;;;;;;;4973347;28;20023;-46
2023/02/23 09:40:59;;;;;;;3.83;2.50;;;;;;;;;;4971816;28;20023;-46
2023/02/23 09:43:32;;;;;;;4.00;2.38;;;;;;;;;;4970783;28;20022;-46
2023/02/23 09:46:18;;;;;;;4.38;3.03;;;;;;;;;;4968753;28;20038;-46
2023/02/23 09:48:44;;;;;;;4.63;3.03;;;;;;;;;;4965147;28;20107;-46
2023/02/23 09:51:15;;;;;;;3.72;2.80;;;;;;;;;;4972306;28;20022;-46
2023/02/23 09:53:52;;;;;;;3.38;2.67;;;;;;;;;;4973122;28;20022;-49
2023/02/23 09:56:28;;;;;;;5.50;2.60;;;;;;;;;;4972912;28;20360;-47
2023/02/23 09:58:54;;;;;;;4.07;2.83;;;;;;;;;;4970665;28;20031;-49
2023/02/23 10:01:20;;;;;;;3.58;2.60;;;;;;;;;;4968337;28;20384;-48
2023/02/23 10:03:57;;;;;;;3.88;2.80;;;;;;;;;;4971367;28;20105;-46
2023/02/23 10:06:23;;;;;;;4.70;2.38;;;;;;;;;;4966176;28;20348;-46
2023/02/23 10:08:55;;;;;;;4.50;2.47;;;;;;;;;;4971214;28;20035;-47
2023/02/23 10:11:34;;;;;;;3.47;2.88;;;;;;;;;;4969938;28;20387;-50
2023/02/23 10:14:18;;;;;;;3.35;2.45;;;;;;;;;;4970700;28;20400;-48
2023/02/23 10:17:02;;;;;;;5.57;2.78;;;;;;;;;;4972438;28;20415;-46
2023/02/23 10:19:33;;;;;;;3.88;2.55;;;;;;;;;;4960967;28;20065;-47
2023/02/23 10:22:02;;;;;;;4.85;2.28;;;;;;;;;;4970894;28;20041;-50
2023/02/23 10:24:32;;;;;;;3.65;2.78;;;;;;;;;;4970938;28;20031;-50
2023/02/23 10:27:00;;;;;;;4.80;2.58;;;;;;;;;;4971420;28;20034;-46
2023/02/23 10:29:28;;;;;;;4.93;3.17;;;;;;;;;;4971580;28;20019;-47
2023/02/23 10:31:56;;;;;;;4.82;2.60;;;;;;;;;;4971229;28;20035;-48
2023/02/23 10:34:23;;;;;;;4.32;2.72;;;;;;;;;;4969624;28;20201;-49
2023/02/23 10:36:55;;;;;;;3.15;2.35;;;;;;;;;;4970906;28;20031;-45
2023/02/23 10:39:21;;;;;;;;;;;;;;;;;;4972129;28;20026;-45
2023/02/23 10:41:47;;;;;;;5.68;2.55;;;;;;;;;;4971622;28;20044;-48
2023/02/23 10:44:19;;;;;;;4.20;2.92;;;;;;;;;;4970408;28;20619;-46
2023/02/23 10:46:45;;;;;;;;;;;;;;;;;;4971576;28;20166;-47
2023/02/23 10:49:17;;;;;;;5.60;2.45;;;;;;;;;;4971359;28;20292;-48
2023/02/23 10:51:44;;;;;;;4.03;2.55;;;;;;;;;;4972106;28;20039;-46
2023/02/23 10:54:29;;;;;;;9.80;4.10;;;;;;;;;;4970849;28;20022;-48
2023/02/23 10:56:55;;;;;;;7.72;2.78;;;;;;;;;;4970133;28;20144;-47
2023/02/23 10:59:21;;;;;;;3.83;2.38;;;;;;;;;;4971120;28;20501;-47
2023/02/23 11:01:47;;;;;;;5.18;3.22;;;;;;;;;;4976305;28;20076;-47
2023/02/23 11:04:18;;;;;;;3.20;2.08;;;;;;;;;;4973763;28;20105;-48
2023/02/23 11:06:44;;;;;;;3.45;2.70;;;;;;;;;;4972527;28;20027;-45
2023/02/23 11:09:28;;;;;;;3.05;2.22;;;;;;;;;;4971176;28;20042;-47
2023/02/23 11:11:57;;;;;;;3.22;2.25;;;;;;;;;;4970711;28;20391;-46
2023/02/23 11:14:26;;;;;;;3.90;2.10;;;;;;;;;;4971157;28;20027;-46
2023/02/23 11:16:53;;;;;;;3.92;2.47;;;;;;;;;;4971067;28;20475;-46
2023/02/23 11:19:22;;;;;;;9.40;2.42;;;;;;;;;;4967706;28;20027;-48
2023/02/23 11:21:51;;;;;;;4.40;2.80;;;;;;;;;;4973843;28;20041;-46
2023/02/23 11:24:36;;;;;;;3.38;2.55;;;;;;;;;;4975360;28;20027;-46
2023/02/23 11:27:05;;;;;;;3.90;3.10;;;;;;;;;;4974218;28;20035;-46
2023/02/23 11:29:34;;;;;;;4.57;2.60;;;;;;;;;;4974591;28;20034;-45
2023/02/23 11:32:06;;;;;;;8.50;2.72;;;;;;;;;;4974319;28;20169;-48
2023/02/23 11:34:39;;;;;;;5.53;2.70;;;;;;;;;;4971957;28;20062;-46
2023/02/23 11:37:18;;;;;;;4.38;2.45;;;;;;;;;;4973964;28;20027;-47
2023/02/23 11:39:56;;;;;;;5.85;2.88;;;;;;;;;;4973415;28;20421;-48
2023/02/23 11:42:24;;;;;;;3.95;2.17;;;;;;;;;;4975243;28;20030;-47
2023/02/23 11:45:08;;;;;;;4.05;2.58;;;;;;;;;;4973539;28;20463;-46
2023/02/23 11:47:41;;;;;;;3.75;2.35;;;;;;;;;;4974260;28;20408;-46
2023/02/23 11:50:07;;;;;;;3.22;2.40;;;;;;;;;;4972913;28;20471;-46
2023/02/23 11:52:35;;;;;;;4.47;2.28;;;;;;;;;;4973829;28;20038;-46
2023/02/23 11:55:15;;;;;;;6.22;2.15;;;;;;;;;;4973513;28;20042;-46
2023/02/23 11:57:41;;;;;;;4.18;2.63;;;;;;;;;;4974442;28;20023;-47
2023/02/23 12:00:12;;;;;;;4.22;2.40;;;;;;;;;;4973290;28;20042;-46
2023/02/23 12:03:05;;;;;;;4.13;2.65;;;;;;;;;;4973696;28;20035;-46
2023/02/23 12:05:32;;;;;;;4.25;2.67;;;;;;;;;;4972134;28;20510;-47
2023/02/23 12:08:12;;;;;;;4.47;2.53;;;;;;;;;;4973653;28;20059;-46
2023/02/23 12:10:41;;;;;;;3.17;2.13;;;;;;;;;;4973574;28;20031;-47
2023/02/23 12:13:07;;;;;;;4.30;2.47;;;;;;;;;;4973155;28;20217;-46
2023/02/23 12:15:51;;;;;;;2.83;2.15;;;;;;;;;;4972931;28;20551;-47
2023/02/23 12:18:17;;;;;;;4.00;2.60;;;;;;;;;;4973814;28;20062;-47
2023/02/23 12:20:45;;;;;;;4.47;2.70;;;;;;;;;;4973726;28;20057;-46
2023/02/23 12:23:14;;;;;;;5.03;2.58;;;;;;;;;;4972949;28;20034;-47
2023/02/23 12:25:43;;;;;;;5.70;2.00;;;;;;;;;;4972684;28;20030;-46
2023/02/23 12:28:12;;;;;;;4.22;2.05;;;;;;;;;;4973055;28;20062;-47
2023/02/23 12:30:41;;;;;;;4.22;2.00;;;;;;;;;;4973504;28;20464;-46
2023/02/23 12:33:11;;;;;;;4.63;2.30;;;;;;;;;;4972755;28;20038;-47
2023/02/23 12:36:06;;;;;;;3.30;2.47;;;;;;;;;;4980017;28;20037;-46
2023/02/23 12:38:38;;;;;;;4.50;2.28;;;;;;;;;;4961049;28;20105;-45
2023/02/23 12:41:04;;;;;;;;;;;;;;;;;;4973859;28;20491;-45
2023/02/23 12:43:37;;;;;;;2.90;1.95;;;;;;;;;;4974308;28;19906;-45
2023/02/23 12:46:20;;;;;;;2.95;2.20;;;;;;;;;;4972052;28;20032;-45
2023/02/23 12:48:50;;;;;;;3.63;2.50;;;;;;;;;;4971434;28;20046;-45
2023/02/23 12:51:20;;;;;;;4.90;2.13;;;;;;;;;;4969120;28;20038;-46
2023/02/23 12:53:46;;;;;;;2.58;1.90;;;;;;;;;;4972497;28;20023;-45
2023/02/23 12:56:28;;;;;;;3.00;2.03;;;;;;;;;;4971771;28;20033;-46
2023/02/23 12:59:13;;;;;;;3.67;1.90;;;;;;;;;;4969883;28;20038;-46
2023/02/23 13:01:44;;;;;;;2.95;2.38;;;;;;;;;;4963854;28;20027;-48
2023/02/23 13:04:29;;;;;;;2.72;2.00;;;;;;;;;;4970393;28;20093;-46
2023/02/23 13:06:58;;;;;;;2.70;1.85;;;;;;;;;;4969481;28;20038;-46
2023/02/23 13:09:36;;;;;;;4.05;2.58;;;;;;;;;;4970699;28;20027;-49
2023/02/23 13:12:14;;;;;;;4.07;2.55;;;;;;;;;;4970568;28;20038;-48
2023/02/23 13:14:41;;;;;;;3.45;2.10;;;;;;;;;;4953810;28;20035;-46
2023/02/23 13:17:17;;;;;;;3.83;1.80;;;;;;;;;;4952882;28;20023;-46
2023/02/23 13:19:54;;;;;;;5.63;2.55;;;;;;;;;;4953918;28;20107;-48
2023/02/23 13:22:20;;;;;;;3.42;1.77;;;;;;;;;;4952883;29;20031;-46
2023/02/23 13:24:48;;;;;;;3.55;1.70;;;;;;;;;;4952930;28;20372;-46
2023/02/23 13:27:15;;;;;;;3.70;1.80;;;;;;;;;;4953350;29;20034;-47
2023/02/23 13:29:42;;;;;;;3.25;1.80;;;;;;;;;;4953500;28;20500;-47
2023/02/23 13:32:12;;;;;;;5.32;2.08;;;;;;;;;;4952283;28;20112;-46
2023/02/23 13:34:48;;;;;;;2.72;1.50;;;;;;;;;;4952685;29;20027;-47
2023/02/23 13:37:16;;;;;;;3.65;1.90;;;;;;;;;;4953563;28;20019;-48
2023/02/23 13:39:48;;;;;;;3.42;1.98;;;;;;;;;;4953047;28;20027;-49
2023/02/23 13:42:17;;;;;;;3.38;1.60;;;;;;;;;;4953054;28;20057;-49
2023/02/23 13:44:54;;;;;;;2.72;1.85;;;;;;;;;;4952311;28;20031;-48
2023/02/23 13:47:20;;;;;;;2.33;1.60;;;;;;;;;;4953516;29;20031;-48
2023/02/23 13:49:54;;;;;;;2.65;1.90;;;;;;;;;;4950869;29;20034;-46
2023/02/23 13:52:29;;;;;;;3.03;2.15;;;;;;;;;;4953075;28;20039;-46
2023/02/23 13:55:02;;;;;;;3.80;1.85;;;;;;;;;;4952716;29;20110;-47
2023/02/23 13:57:29;;;;;;;4.28;2.20;;;;;;;;;;4954014;29;20036;-46
2023/02/23 13:59:55;;;;;;;3.13;2.10;;;;;;;;;;4950978;28;20030;-47
2023/02/23 14:02:27;;;;;;;3.13;2.33;;;;;;;;;;4953808;29;20039;-45
2023/02/23 14:04:53;;;;;;;;;;;;;;;;;;4952766;29;20027;-46
2023/02/23 14:07:19;;;;;;;;;;;;;;;;;;4953325;28;19907;-46
2023/02/23 14:09:45;;;;;;;;;;;;;;;;;;4952357;29;19910;-46
2023/02/23 14:12:15;;;;;;;;;;;;;;;;;;4950256;28;20287;-47
2023/02/23 14:14:41;;;;;;;;;;;;;;;;;;4971318;28;19910;-46
2023/02/23 14:17:07;;;;;;;;;;;;;;;;;;4971842;28;19913;-51
2023/02/23 14:19:33;;;;;;;;;;;;;;;;;;4970640;28;19913;-49
2023/02/23 14:21:59;;;;;;;;;;;;;;;;;;4971071;28;19910;-46
2023/02/23 14:24:25;;;;;;;;;;;;;;;;;;4970051;28;20998;-46
2023/02/23 14:26:51;;;;;;;;;;;;;;;;;;4969607;28;19914;-46
2023/02/23 14:29:16;;;;;;;;;;;;;;;;;;4971808;28;19906;-49
2023/02/23 14:31:42;;;;;;;;;;;;;;;;;;4970467;28;20247;-46
2023/02/23 14:34:08;;;;;;;;;;;;;;;;;;4970414;28;20410;-46
2023/02/23 14:36:34;;;;;;;;;;;;;;;;;;4972363;28;19909;-46
2023/02/23 14:39:00;;;;;;;;;;;;;;;;;;4970541;28;20333;-49
2023/02/23 14:41:26;;;;;;;;;;;;;;;;;;4967598;28;19910;-50
2023/02/23 14:43:52;;;;;;;;;;;;;;;;;;4968195;28;19953;-50
2023/02/23 14:46:18;;;;;;;;;;;;;;;;;;4969443;28;19929;-50
2023/02/23 14:48:44;;;;;;;;;;;;;;;;;;4970911;28;19996;-46
2023/02/23 14:51:10;;;;;;;;;;;;;;;;;;4969914;28;20070;-47
2023/02/23 14:53:36;;;;;;;;;;;;;;;;;;4972385;28;19933;-51
2023/02/23 14:56:02;;;;;;;;;;;;;;;;;;4971523;28;20283;-47
2023/02/23 14:58:28;;;;;;;;;;;;;;;;;;4974583;28;19906;-49
2023/02/23 15:00:54;;;;;;;;;;;;;;;;;;4969235;28;19910;-51
2023/02/23 15:03:21;;;;;;;;;;;;;;;;;;4975681;28;19910;-51
2023/02/23 15:05:47;;;;;;;;;;;;;;;;;;4975263;28;19965;-49
2023/02/23 15:08:13;;;;;;;;;;;;;;;;;;4975809;28;19937;-49
2023/02/23 15:10:39;;;;;;;;;;;;;;;;;;4974153;28;20003;-47
2023/02/23 15:13:04;;;;;;;;;;;;;;;;;;4964682;28;19966;-52
2023/02/23 15:15:30;;;;;;;;;;;;;;;;;;4956256;29;19906;-49
2023/02/23 15:17:56;;;;;;;;;;;;;;;;;;4955586;28;20412;-49
2023/02/23 15:20:22;;;;;;;;;;;;;;;;;;4956231;28;20372;-48
2023/02/23 15:22:48;;;;;;;;;;;;;;;;;;4956479;29;19906;-46
2023/02/23 15:25:14;;;;;;;;;;;;;;;;;;4956660;28;19986;-51
2023/02/23 15:27:41;;;;;;;;;;;;;;;;;;4956875;29;20014;-48
2023/02/23 15:30:07;;;;;;;;;;;;;;;;;;4955004;29;19906;-52
2023/02/23 15:32:34;;;;;;;;;;;;;;;;;;4956652;29;20259;-46
2023/02/23 15:35:03;;;;;;;;;;;;;;;;;;4955437;29;20279;-48
2023/02/23 15:37:29;;;;;;;;;;;;;;;;;;4959705;28;20339;-47
2023/02/23 15:39:55;;;;;;;;;;;;;;;;;;4955602;29;19938;-48
2023/02/23 15:42:21;;;;;;;;;;;;;;;;;;4959875;28;19914;-46
2023/02/23 15:44:47;;;;;;;;;;;;;;;;;;4955687;29;19906;-46
2023/02/23 15:47:15;;;;;;;;;;;;;;;;;;4956432;29;20005;-47
2023/02/23 15:49:41;;;;;;;;;;;;;;;;;;4955961;28;19964;-46
2023/02/23 15:52:07;;;;;;;;;;;;;;;;;;4955601;29;20012;-47
2023/02/23 15:54:33;;;;;;;;;;;;;;;;;;4956008;29;19917;-48
2023/02/23 15:56:59;;;;;;;;;;;;;;;;;;4956250;28;19906;-48
2023/02/23 15:59:25;;;;;;;;;;;;;;;;;;4949360;28;19953;-49
2023/02/23 16:01:52;;;;;;;;;;;;;;;;;;4955210;29;19906;-48
2023/02/23 16:04:18;;;;;;;;;;;;;;;;;;4953958;29;19914;-46
2023/02/23 16:06:44;;;;;;;;;;;;;;;;;;4956995;28;21012;-51
2023/02/23 16:09:12;;;;;;;;;;;;;;;;;;4958486;28;19910;-51
2023/02/23 16:11:38;;;;;;;;;;;;;;;;;;4955690;29;20005;-46
2023/02/23 16:14:05;;;;;;;;;;;;;;;;;;4971838;28;19953;-50
2023/02/23 16:16:31;;;;;;;;;;;;;;;;;;4954280;28;19906;-47
2023/02/23 16:19:00;;;;;;;;;;;;;;;;;;4960366;28;20385;-47
2023/02/23 16:21:26;;;;;;;;;;;;;;;;;;4973692;28;19956;-47
2023/02/23 16:23:52;;;;;;;;;;;;;;;;;;4961083;28;19969;-48
2023/02/23 16:26:23;;;;;;;;;;;;;;;;;;4957418;28;20263;-49
2023/02/23 16:28:48;;;;;;;;;;;;;;;;;;4968969;28;19914;-47